createdAt,value
2019-02-16T00:00:16.514Z,93.90
2019-02-16T00:02:50.215Z,94.00
2019-02-16T00:05:23.796Z,94.20
2019-02-16T00:07:57.442Z,94.10
2019-02-16T00:10:31.096Z,94.20
2019-02-16T00:13:04.845Z,94.20
2019-02-16T00:15:38.553Z,94.30
2019-02-16T00:18:12.127Z,94.30
2019-02-16T00:20:45.783Z,94.40
2019-02-16T00:23:19.504Z,94.40
2019-02-16T00:25:53.175Z,94.40
2019-02-16T00:28:26.846Z,94.40
2019-02-16T00:31:00.490Z,94.60
2019-02-16T00:33:34.156Z,94.50
2019-02-16T00:36:07.803Z,94.50
2019-02-16T00:38:41.520Z,94.30
2019-02-16T00:41:15.140Z,94.20
2019-02-16T00:43:48.820Z,94.00
2019-02-16T00:46:22.454Z,93.80
2019-02-16T00:48:56.088Z,93.70
2019-02-16T00:51:29.788Z,93.60
2019-02-16T00:54:03.673Z,93.70
2019-02-16T00:56:37.482Z,93.80
2019-02-16T00:59:11.137Z,93.70
2019-02-16T01:01:44.725Z,93.60
2019-02-16T01:04:18.388Z,93.50
2019-02-16T01:06:52.007Z,93.50
2019-02-16T01:09:25.622Z,93.50
2019-02-16T01:11:59.294Z,93.60
2019-02-16T01:14:33.020Z,93.60
2019-02-16T01:17:09.569Z,93.60
2019-02-16T01:19:43.236Z,93.40
2019-02-16T01:22:16.948Z,93.30
2019-02-16T01:24:50.572Z,93.20
2019-02-16T01:27:24.555Z,93.20
2019-02-16T01:29:58.226Z,93.20
2019-02-16T01:32:31.807Z,93.00
2019-02-16T01:35:07.077Z,92.80
2019-02-16T01:37:40.804Z,92.50
2019-02-16T01:40:14.504Z,92.30
2019-02-16T01:42:48.212Z,92.20
2019-02-16T01:45:22.240Z,92.30
2019-02-16T01:47:55.828Z,92.30
2019-02-16T01:50:29.576Z,92.20
2019-02-16T01:53:03.198Z,92.30
2019-02-16T01:55:36.838Z,92.10
2019-02-16T01:58:10.471Z,92.00
2019-02-16T02:00:44.100Z,91.80
2019-02-16T02:03:18.140Z,91.60
2019-02-16T02:05:51.859Z,91.30
2019-02-16T02:08:25.534Z,91.40
2019-02-16T02:10:59.394Z,91.20
2019-02-16T02:13:32.968Z,91.10
2019-02-16T02:16:06.602Z,91.10
2019-02-16T02:18:40.268Z,91.00
2019-02-16T02:21:14.542Z,90.90
2019-02-16T02:23:48.212Z,90.90
2019-02-16T02:26:21.870Z,90.80
2019-02-16T02:28:55.478Z,90.80
2019-02-16T02:31:29.114Z,90.80
2019-02-16T02:34:02.921Z,90.80
2019-02-16T02:36:36.584Z,90.60
2019-02-16T02:39:10.190Z,90.70
2019-02-16T02:41:43.808Z,90.50
2019-02-16T02:44:17.462Z,90.60
2019-02-16T02:46:51.155Z,90.60
2019-02-16T02:49:24.888Z,91.00
2019-02-16T02:51:58.534Z,91.20
2019-02-16T02:54:32.228Z,91.20
2019-02-16T02:57:06.260Z,91.10
2019-02-16T02:59:40.059Z,91.00
2019-02-16T03:02:13.720Z,91.10
2019-02-16T03:04:47.319Z,91.20
2019-02-16T03:07:21.116Z,91.30
2019-02-16T03:09:54.723Z,91.40
2019-02-16T03:12:28.354Z,91.50
2019-02-16T03:15:01.972Z,91.70
2019-02-16T03:17:35.676Z,91.70
2019-02-16T03:20:09.433Z,91.60
2019-02-16T03:23:08.854Z,91.60
2019-02-16T03:25:45.900Z,91.80
2019-02-16T03:28:34.856Z,91.80
2019-02-16T03:31:29.700Z,91.80
2019-02-16T03:34:06.436Z,91.70
2019-02-16T03:36:43.106Z,91.80
2019-02-16T03:39:16.953Z,91.80
2019-02-16T03:41:50.538Z,91.60
2019-02-16T03:44:24.278Z,91.60
2019-02-16T03:46:57.952Z,91.70
2019-02-16T03:49:31.625Z,92.00
2019-02-16T03:52:13.353Z,91.90
2019-02-16T03:54:40.627Z,91.80
2019-02-16T03:57:14.287Z,91.70
2019-02-16T03:59:50.473Z,91.60
2019-02-16T04:02:24.093Z,91.40
2019-02-16T04:04:57.755Z,91.50
2019-02-16T04:07:31.573Z,91.40
2019-02-16T04:10:06.346Z,91.40
2019-02-16T04:12:39.990Z,91.50
2019-02-16T04:15:13.650Z,91.40
2019-02-16T04:17:47.381Z,91.40
2019-02-16T04:20:21.026Z,91.30
2019-02-16T04:22:54.659Z,91.40
2019-02-16T04:25:28.262Z,91.40
2019-02-16T04:28:01.904Z,91.40
2019-02-16T04:30:35.529Z,91.40
2019-02-16T04:33:09.166Z,91.50
2019-02-16T04:35:42.746Z,91.60
2019-02-16T04:38:16.401Z,91.50
2019-02-16T04:40:50.122Z,91.60
2019-02-16T04:43:23.737Z,91.40
2019-02-16T04:45:59.666Z,91.00
2019-02-16T04:48:33.398Z,90.60
2019-02-16T04:51:06.995Z,90.30
2019-02-16T04:53:40.758Z,90.20
2019-02-16T04:56:14.431Z,90.00
2019-02-16T04:58:48.116Z,89.70
2019-02-16T05:01:21.786Z,89.20
2019-02-16T05:03:55.525Z,88.90
2019-02-16T05:06:29.079Z,88.70
2019-02-16T05:09:04.043Z,88.20
2019-02-16T05:11:37.672Z,87.80
2019-02-16T05:14:11.326Z,87.20
2019-02-16T05:16:44.937Z,86.40
2019-02-16T05:19:18.802Z,85.70
2019-02-16T05:21:52.387Z,85.00
2019-02-16T05:24:26.010Z,84.30
2019-02-16T05:26:59.751Z,83.50
2019-02-16T05:29:34.015Z,83.10
2019-02-16T05:32:07.732Z,82.70
2019-02-16T05:34:41.338Z,82.60
2019-02-16T05:37:14.980Z,82.70
2019-02-16T05:39:48.597Z,83.00
2019-02-16T05:42:22.349Z,83.20
2019-02-16T05:44:55.960Z,83.10
2019-02-16T05:47:29.620Z,83.10
2019-02-16T05:50:03.356Z,82.60
2019-02-16T05:52:37.110Z,82.90
2019-02-16T05:55:10.801Z,82.70
2019-02-16T05:57:44.521Z,82.30
2019-02-16T06:00:19.759Z,82.60
2019-02-16T06:02:53.496Z,82.20
2019-02-16T06:05:27.187Z,82.40
2019-02-16T06:08:00.837Z,82.20
2019-02-16T06:10:34.445Z,82.60
2019-02-16T06:13:08.145Z,82.80
2019-02-16T06:15:41.763Z,82.80
2019-02-16T06:18:15.483Z,82.80
2019-02-16T06:20:49.243Z,83.50
2019-02-16T06:23:22.991Z,83.40
2019-02-16T06:25:56.585Z,82.60
2019-02-16T06:28:30.269Z,82.00
2019-02-16T06:31:03.979Z,82.40
2019-02-16T06:33:37.653Z,81.90
2019-02-16T06:36:12.969Z,81.20
2019-02-16T06:38:47.109Z,79.60
2019-02-16T06:41:20.686Z,77.10
2019-02-16T06:43:54.391Z,72.50
2019-02-16T06:46:28.069Z,66.70
2019-02-16T06:49:01.697Z,61.10
2019-02-16T06:51:35.373Z,57.60
2019-02-16T06:54:09.145Z,55.30
2019-02-16T06:56:44.357Z,52.60
2019-02-16T06:59:18.171Z,50.30
2019-02-16T07:01:51.851Z,48.00
2019-02-16T07:04:25.673Z,45.80
2019-02-16T07:06:59.287Z,43.60
2019-02-16T07:09:33.036Z,41.90
2019-02-16T07:12:06.692Z,40.90
2019-02-16T07:14:40.464Z,39.80
2019-02-16T07:17:18.781Z,39.40
2019-02-16T07:19:53.146Z,39.50
2019-02-16T07:22:26.927Z,41.00
2019-02-16T07:25:00.559Z,42.50
2019-02-16T07:27:34.300Z,44.90
2019-02-16T07:30:10.910Z,47.00
2019-02-16T07:32:44.590Z,49.10
2019-02-16T07:35:18.177Z,51.10
2019-02-16T07:37:51.816Z,52.30
2019-02-16T07:40:25.400Z,53.70
2019-02-16T07:42:59.042Z,53.80
2019-02-16T07:45:43.473Z,52.90
2019-02-16T07:48:27.606Z,54.00
2019-02-16T07:51:02.935Z,53.90
2019-02-16T07:53:38.169Z,55.00
2019-02-16T07:56:13.473Z,55.50
2019-02-16T07:58:48.723Z,56.20
2019-02-16T08:01:24.139Z,56.00
2019-02-16T08:04:02.306Z,56.20
2019-02-16T08:06:46.626Z,57.40
2019-02-16T08:09:21.899Z,57.70
2019-02-16T08:12:09.499Z,58.10
2019-02-16T08:14:50.351Z,58.50
2019-02-16T08:17:28.508Z,59.00
2019-02-16T08:20:06.508Z,59.30
2019-02-16T08:22:50.720Z,59.10
2019-02-16T08:25:42.425Z,59.10
2019-02-16T08:28:17.619Z,58.30
2019-02-16T08:31:10.787Z,57.80
2019-02-16T08:34:04.313Z,57.00
2019-02-16T08:36:45.641Z,56.30
2019-02-16T08:39:21.073Z,56.00
2019-02-16T08:41:56.898Z,53.70
2019-02-16T08:44:32.432Z,53.20
2019-02-16T08:47:22.962Z,52.50
2019-02-16T08:49:58.261Z,52.50
2019-02-16T08:52:48.618Z,52.30
2019-02-16T08:55:27.877Z,52.20
2019-02-16T08:58:05.611Z,53.10
2019-02-16T09:00:44.196Z,54.40
2019-02-16T09:03:35.933Z,54.20
2019-02-16T09:06:14.103Z,55.60
2019-02-16T09:08:51.940Z,56.00
2019-02-16T09:11:35.968Z,56.60
2019-02-16T09:14:11.282Z,56.90
2019-02-16T09:17:02.097Z,58.10
2019-02-16T09:19:52.523Z,58.00
2019-02-16T09:22:34.116Z,59.20
2019-02-16T09:25:09.820Z,59.60
2019-02-16T09:28:02.230Z,59.80
2019-02-16T09:30:40.512Z,60.30
2019-02-16T09:33:18.852Z,60.60
2019-02-16T09:35:56.941Z,60.50
2019-02-16T09:38:47.492Z,61.10
2019-02-16T09:41:34.639Z,61.40
2019-02-16T09:44:22.045Z,61.60
2019-02-16T09:47:03.640Z,61.60
2019-02-16T09:49:51.178Z,62.10
2019-02-16T09:52:41.675Z,62.20
2019-02-16T09:55:17.104Z,62.40
2019-02-16T09:58:08.820Z,62.10
2019-02-16T10:00:53.012Z,61.80
2019-02-16T10:03:30.916Z,62.00
2019-02-16T10:06:06.342Z,61.20
2019-02-16T10:08:44.625Z,61.60
2019-02-16T10:11:36.338Z,61.10
2019-02-16T10:14:11.644Z,59.90
2019-02-16T10:16:46.976Z,59.00
2019-02-16T10:19:25.037Z,58.80
2019-02-16T10:22:00.350Z,58.70
2019-02-16T10:24:51.732Z,57.30
2019-02-16T10:27:43.398Z,57.20
2019-02-16T10:30:34.998Z,57.50
2019-02-16T10:33:19.329Z,57.30
2019-02-16T10:36:10.823Z,57.40
2019-02-16T10:38:58.172Z,57.20
2019-02-16T10:41:39.500Z,58.30
2019-02-16T10:44:23.721Z,57.70
2019-02-16T10:47:01.563Z,58.30
2019-02-16T10:49:49.073Z,58.40
2019-02-16T10:52:27.387Z,58.20
2019-02-16T10:55:08.668Z,58.20
2019-02-16T10:57:50.060Z,58.50
2019-02-16T11:00:28.168Z,59.00
2019-02-16T11:03:15.316Z,59.10
2019-02-16T11:05:54.511Z,58.70
2019-02-16T11:08:35.773Z,58.00
2019-02-16T11:11:17.794Z,57.20
2019-02-16T11:14:09.452Z,56.60
2019-02-16T11:16:50.698Z,56.10
2019-02-16T11:19:26.425Z,56.20
2019-02-16T11:22:04.954Z,56.10
2019-02-16T11:24:49.417Z,55.60
2019-02-16T11:27:27.616Z,54.90
2019-02-16T11:30:18.099Z,54.10
2019-02-16T11:32:56.323Z,53.40
2019-02-16T11:35:40.498Z,52.80
2019-02-16T11:38:33.823Z,52.80
2019-02-16T11:41:18.277Z,52.00
2019-02-16T11:43:46.278Z,51.60
2019-02-16T11:46:24.225Z,51.60
2019-02-16T11:49:08.214Z,52.10
2019-02-16T11:52:00.014Z,51.80
2019-02-16T11:54:35.350Z,52.20
2019-02-16T11:57:19.765Z,51.70
2019-02-16T12:00:11.506Z,51.70
2019-02-16T12:03:04.738Z,51.60
2019-02-16T12:05:40.080Z,51.20
2019-02-16T12:08:15.973Z,51.10
2019-02-16T12:10:57.104Z,50.80
2019-02-16T12:13:50.392Z,51.00
2019-02-16T12:16:25.656Z,50.70
2019-02-16T12:19:06.751Z,49.10
2019-02-16T12:21:48.306Z,48.50
2019-02-16T12:24:23.605Z,48.90
2019-02-16T12:26:58.870Z,48.40
2019-02-16T12:29:50.654Z,47.80
2019-02-16T12:32:28.853Z,48.00
2019-02-16T12:35:06.722Z,47.30
2019-02-16T12:37:47.696Z,46.20
2019-02-16T12:40:28.595Z,45.00
2019-02-16T12:43:07.039Z,44.80
2019-02-16T12:45:50.828Z,45.10
2019-02-16T12:48:19.519Z,45.80
2019-02-16T12:51:07.150Z,46.40
2019-02-16T12:53:45.357Z,46.30
2019-02-16T12:56:26.805Z,46.40
2019-02-16T12:59:10.947Z,46.30
2019-02-16T13:01:46.198Z,46.50
2019-02-16T13:04:33.671Z,46.10
2019-02-16T13:07:24.107Z,46.00
2019-02-16T13:09:59.496Z,46.20
2019-02-16T13:12:38.736Z,46.10
2019-02-16T13:15:23.110Z,46.00
2019-02-16T13:18:15.247Z,46.20
2019-02-16T13:20:53.487Z,45.90
2019-02-16T13:23:47.158Z,46.00
2019-02-16T13:26:28.420Z,45.10
2019-02-16T13:29:19.937Z,43.70
2019-02-16T13:31:58.598Z,43.80
2019-02-16T13:34:36.497Z,43.50
2019-02-16T13:37:11.835Z,43.90
2019-02-16T13:40:03.245Z,44.00
2019-02-16T13:42:39.131Z,44.20
2019-02-16T13:45:20.355Z,44.50
2019-02-16T13:47:58.558Z,45.00
2019-02-16T13:50:50.447Z,45.40
2019-02-16T13:53:29.813Z,46.00
2019-02-16T13:56:23.317Z,46.40
2019-02-16T13:59:10.515Z,47.00
2019-02-16T14:01:48.623Z,47.30
2019-02-16T14:04:38.856Z,47.90
2019-02-16T14:07:14.793Z,48.00
2019-02-16T14:10:00.492Z,47.80
2019-02-16T14:12:38.359Z,48.30
2019-02-16T14:15:14.207Z,48.40
2019-02-16T14:17:47.947Z,48.20
2019-02-16T14:20:21.625Z,48.90
2019-02-16T14:22:55.262Z,48.90
2019-02-16T14:25:43.749Z,49.50
2019-02-16T14:28:14.542Z,49.60
2019-02-16T14:30:48.266Z,50.00
2019-02-16T14:33:22.057Z,50.50
2019-02-16T14:35:55.782Z,51.00
2019-02-16T14:38:31.123Z,51.10
2019-02-16T14:41:04.905Z,51.60
2019-02-16T14:43:38.647Z,53.00
2019-02-16T14:46:12.284Z,54.00
2019-02-16T14:48:46.027Z,53.10
2019-02-16T14:51:19.709Z,53.30
2019-02-16T14:53:53.510Z,53.70
2019-02-16T14:56:27.280Z,53.40
2019-02-16T14:59:01.045Z,52.90
2019-02-16T15:01:34.741Z,53.30
2019-02-16T15:04:08.387Z,53.70
2019-02-16T15:06:42.100Z,53.80
2019-02-16T15:09:15.785Z,54.40
2019-02-16T15:11:49.527Z,55.00
2019-02-16T15:14:23.223Z,55.70
2019-02-16T15:16:56.915Z,56.10
2019-02-16T15:19:32.554Z,56.60
2019-02-16T15:22:05.993Z,57.10
2019-02-16T15:24:39.688Z,57.40
2019-02-16T15:27:13.379Z,57.70
2019-02-16T15:29:46.955Z,58.10
2019-02-16T15:32:20.656Z,59.40
2019-02-16T15:34:54.254Z,59.40
2019-02-16T15:37:27.953Z,59.90
2019-02-16T15:40:01.578Z,61.10
2019-02-16T15:42:35.262Z,61.60
2019-02-16T15:45:11.613Z,62.50
2019-02-16T15:47:45.247Z,64.10
2019-02-16T15:50:18.839Z,63.70
2019-02-16T15:52:52.595Z,64.30
2019-02-16T15:55:26.281Z,64.50
2019-02-16T15:57:59.957Z,64.70
2019-02-16T16:00:33.694Z,65.20
2019-02-16T16:03:07.523Z,66.10
2019-02-16T16:05:41.097Z,66.60
2019-02-16T16:08:19.428Z,67.10
2019-02-16T16:10:57.746Z,68.00
2019-02-16T16:13:38.962Z,68.50
2019-02-16T16:16:17.109Z,69.30
2019-02-16T16:18:53.273Z,69.70
2019-02-16T16:21:40.799Z,70.10
2019-02-16T16:24:32.658Z,70.40
2019-02-16T16:27:13.603Z,70.60
2019-02-16T16:29:51.495Z,71.00
2019-02-16T16:32:41.931Z,71.10
2019-02-16T16:35:17.265Z,71.20
2019-02-16T16:38:01.595Z,70.60
2019-02-16T16:40:37.157Z,70.50
2019-02-16T16:43:15.404Z,70.60
2019-02-16T16:45:50.717Z,70.60
2019-02-16T16:48:25.967Z,70.80
2019-02-16T16:51:09.907Z,70.70
2019-02-16T16:53:45.299Z,70.90
2019-02-16T16:56:28.441Z,70.90
2019-02-16T16:59:03.461Z,70.90
2019-02-16T17:01:41.873Z,71.10
2019-02-16T17:04:22.916Z,71.10
2019-02-16T17:07:03.874Z,71.50
2019-02-16T17:09:45.465Z,71.90
2019-02-16T17:12:20.784Z,71.70
2019-02-16T17:15:05.781Z,72.20
2019-02-16T17:17:46.784Z,72.60
2019-02-16T17:20:24.966Z,72.80
2019-02-16T17:23:00.243Z,72.90
2019-02-16T17:25:41.460Z,73.20
2019-02-16T17:28:16.792Z,73.30
2019-02-16T17:30:54.932Z,73.60
2019-02-16T17:33:38.827Z,74.00
2019-02-16T17:36:16.679Z,73.90
2019-02-16T17:38:55.371Z,74.00
2019-02-16T17:41:30.675Z,74.00
2019-02-16T17:44:09.132Z,73.80
2019-02-16T17:46:44.395Z,73.70
2019-02-16T17:49:22.700Z,73.60
2019-02-16T17:51:57.999Z,73.60
2019-02-16T17:54:33.219Z,73.70
2019-02-16T17:57:20.290Z,73.70
2019-02-16T17:59:55.700Z,73.50
2019-02-16T18:02:42.445Z,73.30
2019-02-16T18:05:33.995Z,73.00
2019-02-16T18:08:09.302Z,72.90
2019-02-16T18:10:44.668Z,72.80
2019-02-16T18:16:23.933Z,72.80
2019-02-16T18:19:05.512Z,72.70
2019-02-16T18:21:43.907Z,72.60
2019-02-16T18:24:28.137Z,72.40
2019-02-16T18:27:03.396Z,72.20
2019-02-16T18:29:39.333Z,71.80
2019-02-16T18:32:31.563Z,71.60
2019-02-16T18:35:08.180Z,70.90
2019-02-16T18:37:44.944Z,70.60
2019-02-16T18:40:32.164Z,70.20
2019-02-16T18:43:09.929Z,69.40
2019-02-16T18:45:47.593Z,69.60
2019-02-16T18:48:41.043Z,69.50
2019-02-16T18:51:16.282Z,69.60
2019-02-16T18:53:57.339Z,69.70
2019-02-16T18:56:38.389Z,69.60
2019-02-16T18:59:16.483Z,70.00
2019-02-16T19:01:55.126Z,70.00
2019-02-16T19:04:46.648Z,70.30
2019-02-16T19:07:37.258Z,70.50
2019-02-16T19:10:12.660Z,70.70
2019-02-16T19:13:00.072Z,70.70
2019-02-16T19:15:35.373Z,70.80
2019-02-16T19:18:18.155Z,70.90
2019-02-16T19:21:05.251Z,71.20
2019-02-16T19:23:49.432Z,71.10
2019-02-16T19:26:33.922Z,71.50
2019-02-16T19:29:09.264Z,72.30
2019-02-16T19:31:44.570Z,71.50
2019-02-16T19:34:26.048Z,71.30
2019-02-16T19:37:01.380Z,71.70
2019-02-16T19:39:39.539Z,71.70
2019-02-16T19:42:14.891Z,71.60
2019-02-16T19:44:55.953Z,71.80
2019-02-16T19:47:31.209Z,71.90
2019-02-16T19:50:08.760Z,71.80
2019-02-16T19:53:00.859Z,72.10
2019-02-16T19:55:38.909Z,72.20
2019-02-16T19:58:16.862Z,72.40
2019-02-16T20:00:57.948Z,72.40
2019-02-16T20:03:39.220Z,72.70
2019-02-16T20:06:23.442Z,72.70
2019-02-16T20:09:07.549Z,72.60
2019-02-16T20:11:59.289Z,72.80
2019-02-16T20:14:46.338Z,72.60
2019-02-16T20:17:21.653Z,72.40
2019-02-16T20:19:59.649Z,72.50
2019-02-16T20:22:40.858Z,72.70
2019-02-16T20:25:16.056Z,72.70
2019-02-16T20:28:03.786Z,72.80
2019-02-16T20:30:41.920Z,72.40
2019-02-16T20:33:17.171Z,72.30
2019-02-16T20:36:10.668Z,72.00
2019-02-16T20:38:48.884Z,71.90
2019-02-16T20:41:39.255Z,71.90
2019-02-16T20:44:20.453Z,72.00
2019-02-16T20:46:59.019Z,72.40
2019-02-16T20:49:37.090Z,72.60
2019-02-16T20:52:27.455Z,72.70
2019-02-16T20:55:08.563Z,72.70
2019-02-16T20:57:49.529Z,72.60
2019-02-16T21:00:24.791Z,71.80
2019-02-16T21:03:00.076Z,72.40
2019-02-16T21:05:50.321Z,72.60
2019-02-16T21:08:25.622Z,72.50
2019-02-16T21:11:01.055Z,72.60
2019-02-16T21:13:37.932Z,72.80
2019-02-16T21:16:13.272Z,72.70
2019-02-16T21:18:57.401Z,73.00
2019-02-16T21:21:44.824Z,73.70
2019-02-16T21:24:21.334Z,73.10
2019-02-16T21:27:02.572Z,72.80
2019-02-16T21:29:37.875Z,73.40
2019-02-16T21:32:14.788Z,73.20
2019-02-16T21:34:59.376Z,73.60
2019-02-16T21:37:37.282Z,73.80
2019-02-16T21:40:12.550Z,73.80
2019-02-16T21:42:54.020Z,73.80
2019-02-16T21:45:46.855Z,74.40
2019-02-16T21:48:21.561Z,74.40
2019-02-16T21:50:59.733Z,74.50
2019-02-16T21:53:35.468Z,75.00
2019-02-16T21:56:13.660Z,75.20
2019-02-16T21:58:51.740Z,75.70
2019-02-16T22:01:37.929Z,75.80
2019-02-16T22:04:16.212Z,76.10
2019-02-16T22:06:51.689Z,76.60
2019-02-16T22:09:45.154Z,76.80
2019-02-16T22:12:20.195Z,77.20
2019-02-16T22:14:53.821Z,77.20
2019-02-16T22:17:27.404Z,77.20
2019-02-16T22:20:01.025Z,77.60
2019-02-16T22:22:34.728Z,77.80
2019-02-16T22:25:08.582Z,77.60
2019-02-16T22:27:42.200Z,77.40
2019-02-16T22:30:15.984Z,77.20
2019-02-16T22:32:49.597Z,77.60
2019-02-16T22:35:23.288Z,77.70
2019-02-16T22:37:57.016Z,77.70
2019-02-16T22:40:30.813Z,77.80
2019-02-16T22:43:04.426Z,78.10
2019-02-16T22:45:38.033Z,78.30
2019-02-16T22:48:11.745Z,78.50
2019-02-16T22:50:45.476Z,78.60
2019-02-16T22:53:19.148Z,78.80
2019-02-16T22:55:52.816Z,79.00
2019-02-16T22:58:28.766Z,79.30
2019-02-16T23:01:01.974Z,79.30
2019-02-16T23:03:35.652Z,79.70
2019-02-16T23:06:09.291Z,80.90
2019-02-16T23:08:42.932Z,80.40
2019-02-16T23:11:16.810Z,80.80
2019-02-16T23:13:50.469Z,81.10
2019-02-16T23:16:24.174Z,81.50
2019-02-16T23:18:57.871Z,82.00
2019-02-16T23:21:31.551Z,82.70
2019-02-16T23:24:05.266Z,83.00
2019-02-16T23:26:38.924Z,83.30
2019-02-16T23:29:12.545Z,83.20
2019-02-16T23:31:46.266Z,83.80
2019-02-16T23:34:19.919Z,84.20
2019-02-16T23:36:53.616Z,84.50
2019-02-16T23:39:27.198Z,84.90
2019-02-16T23:42:00.920Z,85.20
2019-02-16T23:44:34.586Z,85.50
2019-02-16T23:47:08.291Z,86.00
2019-02-16T23:49:41.890Z,85.90
2019-02-16T23:52:15.486Z,86.20
2019-02-16T23:54:49.085Z,86.80
2019-02-16T23:57:22.892Z,87.60
2019-02-16T23:59:56.471Z,87.10
